Las Vegas, Nevada
Traffic Map
Current Weather Conditions
Las Vegas, Nevada
Few Clouds
Few Clouds
96°
Feels Like: 96°
Wind Chill: 96° Ceiling: Unl
Heat Index: 96° Visibility: 10mi
Dew Point: 38° Wind: 7mph
Humidity: 13% Direction: 70° (ENE)
Pressure: 29.79in Gusts: 0mph
Raw Report DataKLAS 192156Z 07006KT 10SM FEW120 36/03 A2979 RMK AO2 SLP057 T03560033
Traffic Incident Summary
Active as of:
Severity:
Category:
InformationThere was an issue retrieving the traffic information for this location. Please try a different location or try again shortly.
Advertisements
Track Severe Weather on mobile